sensor_id;sensor_type;location;lat;lon;timestamp;P1;durP1;ratioP1;P2;durP2;ratioP2
2860;SDS011;1438;50.922;6.704;2023-04-05T00:00:30;8.27;;;4.55;;
2860;SDS011;1438;50.922;6.704;2023-04-05T00:02:56;6.70;;;4.88;;
2860;SDS011;1438;50.922;6.704;2023-04-05T00:05:24;8.05;;;4.65;;
2860;SDS011;1438;50.922;6.704;2023-04-05T00:07:58;14.45;;;4.80;;
2860;SDS011;1438;50.922;6.704;2023-04-05T00:10:29;9.60;;;4.88;;
2860;SDS011;1438;50.922;6.704;2023-04-05T00:12:55;6.95;;;4.75;;
2860;SDS011;1438;50.922;6.704;2023-04-05T00:15:21;8.60;;;4.60;;
2860;SDS011;1438;50.922;6.704;2023-04-05T00:17:47;9.02;;;3.88;;
2860;SDS011;1438;50.922;6.704;2023-04-05T00:20:13;8.27;;;4.57;;
2860;SDS011;1438;50.922;6.704;2023-04-05T00:22:40;8.63;;;4.57;;
2860;SDS011;1438;50.922;6.704;2023-04-05T00:25:10;6.50;;;4.32;;
2860;SDS011;1438;50.922;6.704;2023-04-05T00:27:36;6.95;;;4.20;;
2860;SDS011;1438;50.922;6.704;2023-04-05T00:30:02;9.35;;;4.30;;
2860;SDS011;1438;50.922;6.704;2023-04-05T00:32:28;5.82;;;4.82;;
2860;SDS011;1438;50.922;6.704;2023-04-05T00:34:55;7.50;;;4.25;;
2860;SDS011;1438;50.922;6.704;2023-04-05T00:37:21;9.30;;;4.65;;
2860;SDS011;1438;50.922;6.704;2023-04-05T00:39:47;10.15;;;5.15;;
2860;SDS011;1438;50.922;6.704;2023-04-05T00:42:13;7.38;;;4.43;;
2860;SDS011;1438;50.922;6.704;2023-04-05T00:44:39;6.07;;;4.20;;
2860;SDS011;1438;50.922;6.704;2023-04-05T00:47:05;7.15;;;4.47;;
2860;SDS011;1438;50.922;6.704;2023-04-05T00:49:32;7.07;;;5.22;;
2860;SDS011;1438;50.922;6.704;2023-04-05T00:51:58;7.43;;;4.70;;
2860;SDS011;1438;50.922;6.704;2023-04-05T00:54:25;8.25;;;4.80;;
2860;SDS011;1438;50.922;6.704;2023-04-05T00:56:55;7.53;;;4.57;;
2860;SDS011;1438;50.922;6.704;2023-04-05T00:59:21;8.98;;;4.53;;
2860;SDS011;1438;50.922;6.704;2023-04-05T01:01:48;7.22;;;4.30;;
2860;SDS011;1438;50.922;6.704;2023-04-05T01:04:18;6.35;;;3.90;;
2860;SDS011;1438;50.922;6.704;2023-04-05T01:12:00;7.88;;;4.35;;
2860;SDS011;1438;50.922;6.704;2023-04-05T01:14:27;9.25;;;5.25;;
2860;SDS011;1438;50.922;6.704;2023-04-05T01:16:53;8.05;;;4.70;;
2860;SDS011;1438;50.922;6.704;2023-04-05T01:19:23;8.95;;;5.25;;
2860;SDS011;1438;50.922;6.704;2023-04-05T01:27:15;11.30;;;3.97;;
2860;SDS011;1438;50.922;6.704;2023-04-05T01:29:50;6.40;;;4.45;;
2860;SDS011;1438;50.922;6.704;2023-04-05T01:35:02;5.97;;;4.00;;
2860;SDS011;1438;50.922;6.704;2023-04-05T01:37:30;6.05;;;4.15;;
2860;SDS011;1438;50.922;6.704;2023-04-05T01:39:57;7.43;;;4.63;;
2860;SDS011;1438;50.922;6.704;2023-04-05T01:42:24;10.35;;;4.30;;
2860;SDS011;1438;50.922;6.704;2023-04-05T01:44:51;6.55;;;4.50;;
2860;SDS011;1438;50.922;6.704;2023-04-05T01:47:17;7.95;;;5.05;;
2860;SDS011;1438;50.922;6.704;2023-04-05T01:49:44;8.10;;;4.30;;
2860;SDS011;1438;50.922;6.704;2023-04-05T01:52:10;9.65;;;4.70;;
2860;SDS011;1438;50.922;6.704;2023-04-05T01:54:36;7.00;;;3.75;;
2860;SDS011;1438;50.922;6.704;2023-04-05T01:57:03;7.60;;;4.03;;
2860;SDS011;1438;50.922;6.704;2023-04-05T01:59:29;7.00;;;4.30;;
2860;SDS011;1438;50.922;6.704;2023-04-05T02:01:55;4.80;;;3.72;;
2860;SDS011;1438;50.922;6.704;2023-04-05T02:04:21;6.63;;;4.72;;
2860;SDS011;1438;50.922;6.704;2023-04-05T02:06:47;6.65;;;4.35;;
2860;SDS011;1438;50.922;6.704;2023-04-05T02:09:13;5.60;;;4.40;;
2860;SDS011;1438;50.922;6.704;2023-04-05T02:11:40;7.22;;;4.57;;
2860;SDS011;1438;50.922;6.704;2023-04-05T02:14:06;5.10;;;3.70;;
2860;SDS011;1438;50.922;6.704;2023-04-05T02:16:32;6.15;;;3.40;;
2860;SDS011;1438;50.922;6.704;2023-04-05T02:18:58;6.10;;;4.20;;
2860;SDS011;1438;50.922;6.704;2023-04-05T02:21:25;7.35;;;4.20;;
2860;SDS011;1438;50.922;6.704;2023-04-05T02:23:51;5.25;;;4.07;;
2860;SDS011;1438;50.922;6.704;2023-04-05T02:26:17;6.38;;;4.20;;
2860;SDS011;1438;50.922;6.704;2023-04-05T02:28:43;6.10;;;4.35;;
2860;SDS011;1438;50.922;6.704;2023-04-05T02:31:10;8.15;;;3.90;;
2860;SDS011;1438;50.922;6.704;2023-04-05T02:33:37;7.78;;;4.40;;
2860;SDS011;1438;50.922;6.704;2023-04-05T02:36:03;8.63;;;5.22;;
2860;SDS011;1438;50.922;6.704;2023-04-05T02:38:33;7.47;;;4.80;;
2860;SDS011;1438;50.922;6.704;2023-04-05T02:40:59;5.93;;;5.32;;
2860;SDS011;1438;50.922;6.704;2023-04-05T02:43:25;5.63;;;4.15;;
2860;SDS011;1438;50.922;6.704;2023-04-05T02:45:51;6.57;;;4.15;;
2860;SDS011;1438;50.922;6.704;2023-04-05T02:48:17;8.73;;;4.88;;
2860;SDS011;1438;50.922;6.704;2023-04-05T02:50:49;9.68;;;5.40;;
2860;SDS011;1438;50.922;6.704;2023-04-05T02:53:16;7.63;;;4.70;;
2860;SDS011;1438;50.922;6.704;2023-04-05T02:55:42;8.20;;;4.65;;
2860;SDS011;1438;50.922;6.704;2023-04-05T02:58:08;9.48;;;6.18;;
2860;SDS011;1438;50.922;6.704;2023-04-05T03:00:34;7.88;;;5.47;;
2860;SDS011;1438;50.922;6.704;2023-04-05T03:03:00;8.25;;;5.15;;
2860;SDS011;1438;50.922;6.704;2023-04-05T03:05:26;8.95;;;6.00;;
2860;SDS011;1438;50.922;6.704;2023-04-05T03:07:53;7.93;;;4.78;;
2860;SDS011;1438;50.922;6.704;2023-04-05T03:10:20;8.13;;;5.22;;
2860;SDS011;1438;50.922;6.704;2023-04-05T03:12:46;8.43;;;6.13;;
2860;SDS011;1438;50.922;6.704;2023-04-05T03:15:15;7.68;;;5.57;;
2860;SDS011;1438;50.922;6.704;2023-04-05T03:17:41;9.93;;;5.75;;
2860;SDS011;1438;50.922;6.704;2023-04-05T03:20:08;9.18;;;5.43;;
2860;SDS011;1438;50.922;6.704;2023-04-05T03:22:34;8.05;;;5.10;;
2860;SDS011;1438;50.922;6.704;2023-04-05T03:25:00;11.85;;;5.25;;
2860;SDS011;1438;50.922;6.704;2023-04-05T03:27:27;6.82;;;5.25;;
2860;SDS011;1438;50.922;6.704;2023-04-05T03:29:53;14.35;;;6.22;;
2860;SDS011;1438;50.922;6.704;2023-04-05T03:32:19;8.38;;;4.93;;
2860;SDS011;1438;50.922;6.704;2023-04-05T03:34:45;8.73;;;6.40;;
2860;SDS011;1438;50.922;6.704;2023-04-05T03:37:11;10.38;;;5.72;;
2860;SDS011;1438;50.922;6.704;2023-04-05T03:39:37;11.85;;;5.88;;
2860;SDS011;1438;50.922;6.704;2023-04-05T03:42:03;6.70;;;5.15;;
2860;SDS011;1438;50.922;6.704;2023-04-05T03:44:29;10.32;;;5.65;;
2860;SDS011;1438;50.922;6.704;2023-04-05T03:46:55;8.50;;;6.05;;
2860;SDS011;1438;50.922;6.704;2023-04-05T03:49:22;8.93;;;5.65;;
2860;SDS011;1438;50.922;6.704;2023-04-05T03:51:48;9.27;;;4.78;;
2860;SDS011;1438;50.922;6.704;2023-04-05T03:54:14;9.27;;;5.25;;
2860;SDS011;1438;50.922;6.704;2023-04-05T03:56:40;10.73;;;5.50;;
2860;SDS011;1438;50.922;6.704;2023-04-05T03:59:07;9.98;;;5.78;;
2860;SDS011;1438;50.922;6.704;2023-04-05T04:01:33;10.20;;;6.30;;
2860;SDS011;1438;50.922;6.704;2023-04-05T04:04:00;16.17;;;7.35;;
2860;SDS011;1438;50.922;6.704;2023-04-05T04:06:28;10.05;;;6.20;;
2860;SDS011;1438;50.922;6.704;2023-04-05T04:08:54;8.68;;;5.85;;
2860;SDS011;1438;50.922;6.704;2023-04-05T04:11:21;11.30;;;6.43;;
2860;SDS011;1438;50.922;6.704;2023-04-05T04:13:47;8.25;;;5.40;;
2860;SDS011;1438;50.922;6.704;2023-04-05T04:16:13;9.25;;;6.22;;
2860;SDS011;1438;50.922;6.704;2023-04-05T04:18:41;12.25;;;5.65;;
2860;SDS011;1438;50.922;6.704;2023-04-05T04:21:07;9.73;;;5.93;;
2860;SDS011;1438;50.922;6.704;2023-04-05T04:23:34;14.10;;;6.10;;
2860;SDS011;1438;50.922;6.704;2023-04-05T04:26:02;10.65;;;6.15;;
2860;SDS011;1438;50.922;6.704;2023-04-05T04:28:29;10.65;;;6.30;;
2860;SDS011;1438;50.922;6.704;2023-04-05T04:30:58;9.07;;;6.13;;
2860;SDS011;1438;50.922;6.704;2023-04-05T04:33:28;12.82;;;6.60;;
2860;SDS011;1438;50.922;6.704;2023-04-05T04:35:55;12.38;;;7.65;;
2860;SDS011;1438;50.922;6.704;2023-04-05T04:38:21;13.68;;;7.25;;
2860;SDS011;1438;50.922;6.704;2023-04-05T04:40:49;12.45;;;6.28;;
2860;SDS011;1438;50.922;6.704;2023-04-05T04:43:18;12.35;;;6.93;;
2860;SDS011;1438;50.922;6.704;2023-04-05T04:46:00;19.75;;;7.05;;
2860;SDS011;1438;50.922;6.704;2023-04-05T04:51:57;11.63;;;5.97;;
2860;SDS011;1438;50.922;6.704;2023-04-05T04:54:23;10.75;;;6.32;;
2860;SDS011;1438;50.922;6.704;2023-04-05T04:56:49;9.88;;;5.53;;
2860;SDS011;1438;50.922;6.704;2023-04-05T04:59:16;10.77;;;7.35;;
2860;SDS011;1438;50.922;6.704;2023-04-05T05:01:43;10.13;;;6.43;;
2860;SDS011;1438;50.922;6.704;2023-04-05T05:04:09;10.00;;;6.15;;
2860;SDS011;1438;50.922;6.704;2023-04-05T05:06:36;9.57;;;5.88;;
2860;SDS011;1438;50.922;6.704;2023-04-05T05:09:02;17.02;;;6.18;;
2860;SDS011;1438;50.922;6.704;2023-04-05T05:11:28;9.20;;;6.25;;
2860;SDS011;1438;50.922;6.704;2023-04-05T05:13:54;12.68;;;5.95;;
2860;SDS011;1438;50.922;6.704;2023-04-05T05:16:21;11.25;;;6.60;;
2860;SDS011;1438;50.922;6.704;2023-04-05T05:18:47;12.32;;;7.10;;
2860;SDS011;1438;50.922;6.704;2023-04-05T05:21:15;12.73;;;6.90;;
2860;SDS011;1438;50.922;6.704;2023-04-05T05:23:41;9.85;;;5.80;;
2860;SDS011;1438;50.922;6.704;2023-04-05T05:26:07;9.82;;;6.05;;
2860;SDS011;1438;50.922;6.704;2023-04-05T05:28:33;11.60;;;6.43;;
2860;SDS011;1438;50.922;6.704;2023-04-05T05:30:59;14.18;;;7.38;;
2860;SDS011;1438;50.922;6.704;2023-04-05T05:33:25;12.40;;;7.55;;
2860;SDS011;1438;50.922;6.704;2023-04-05T05:35:51;11.55;;;7.28;;
2860;SDS011;1438;50.922;6.704;2023-04-05T05:38:17;11.23;;;7.15;;
2860;SDS011;1438;50.922;6.704;2023-04-05T05:40:43;15.15;;;7.60;;
2860;SDS011;1438;50.922;6.704;2023-04-05T05:43:09;15.55;;;7.82;;
2860;SDS011;1438;50.922;6.704;2023-04-05T05:45:36;10.70;;;7.10;;
2860;SDS011;1438;50.922;6.704;2023-04-05T05:48:02;12.80;;;7.45;;
2860;SDS011;1438;50.922;6.704;2023-04-05T05:50:28;12.85;;;7.55;;
2860;SDS011;1438;50.922;6.704;2023-04-05T05:52:57;11.93;;;7.60;;
2860;SDS011;1438;50.922;6.704;2023-04-05T05:55:23;14.63;;;7.50;;
2860;SDS011;1438;50.922;6.704;2023-04-05T05:57:49;14.93;;;8.07;;
2860;SDS011;1438;50.922;6.704;2023-04-05T06:00:17;14.43;;;7.95;;
2860;SDS011;1438;50.922;6.704;2023-04-05T06:02:43;16.27;;;7.78;;
2860;SDS011;1438;50.922;6.704;2023-04-05T06:05:09;13.82;;;7.72;;
2860;SDS011;1438;50.922;6.704;2023-04-05T06:07:36;13.00;;;7.63;;
2860;SDS011;1438;50.922;6.704;2023-04-05T06:10:03;13.30;;;7.47;;
2860;SDS011;1438;50.922;6.704;2023-04-05T06:12:29;15.15;;;8.00;;
2860;SDS011;1438;50.922;6.704;2023-04-05T06:14:55;13.07;;;7.78;;
2860;SDS011;1438;50.922;6.704;2023-04-05T06:17:21;9.55;;;6.68;;
2860;SDS011;1438;50.922;6.704;2023-04-05T06:19:47;12.43;;;7.45;;
2860;SDS011;1438;50.922;6.704;2023-04-05T06:22:13;12.25;;;8.10;;
2860;SDS011;1438;50.922;6.704;2023-04-05T06:24:40;11.98;;;7.95;;
2860;SDS011;1438;50.922;6.704;2023-04-05T06:27:06;11.23;;;7.85;;
2860;SDS011;1438;50.922;6.704;2023-04-05T06:29:32;12.93;;;7.07;;
2860;SDS011;1438;50.922;6.704;2023-04-05T06:31:58;14.65;;;7.55;;
2860;SDS011;1438;50.922;6.704;2023-04-05T06:34:24;11.50;;;7.53;;
2860;SDS011;1438;50.922;6.704;2023-04-05T06:36:50;10.73;;;7.78;;
2860;SDS011;1438;50.922;6.704;2023-04-05T06:39:16;14.45;;;8.55;;
2860;SDS011;1438;50.922;6.704;2023-04-05T06:41:43;13.10;;;8.23;;
2860;SDS011;1438;50.922;6.704;2023-04-05T06:44:09;12.98;;;7.93;;
2860;SDS011;1438;50.922;6.704;2023-04-05T06:46:35;9.50;;;7.40;;
2860;SDS011;1438;50.922;6.704;2023-04-05T06:49:01;18.50;;;9.20;;
2860;SDS011;1438;50.922;6.704;2023-04-05T06:51:27;12.50;;;7.60;;
2860;SDS011;1438;50.922;6.704;2023-04-05T06:53:54;14.65;;;7.75;;
2860;SDS011;1438;50.922;6.704;2023-04-05T06:56:20;13.50;;;9.10;;
2860;SDS011;1438;50.922;6.704;2023-04-05T06:58:47;11.60;;;7.70;;
2860;SDS011;1438;50.922;6.704;2023-04-05T07:01:14;21.25;;;9.23;;
2860;SDS011;1438;50.922;6.704;2023-04-05T07:03:41;9.77;;;7.82;;
2860;SDS011;1438;50.922;6.704;2023-04-05T07:06:07;12.85;;;8.02;;
2860;SDS011;1438;50.922;6.704;2023-04-05T07:08:34;12.38;;;7.63;;
2860;SDS011;1438;50.922;6.704;2023-04-05T07:11:00;16.35;;;8.27;;
2860;SDS011;1438;50.922;6.704;2023-04-05T07:13:26;10.70;;;8.32;;
2860;SDS011;1438;50.922;6.704;2023-04-05T07:15:58;10.60;;;6.70;;
2860;SDS011;1438;50.922;6.704;2023-04-05T07:18:24;10.70;;;7.30;;
2860;SDS011;1438;50.922;6.704;2023-04-05T07:20:50;16.50;;;7.32;;
2860;SDS011;1438;50.922;6.704;2023-04-05T07:23:20;13.10;;;8.70;;
2860;SDS011;1438;50.922;6.704;2023-04-05T07:25:46;11.38;;;7.20;;
2860;SDS011;1438;50.922;6.704;2023-04-05T07:28:12;14.52;;;7.50;;
2860;SDS011;1438;50.922;6.704;2023-04-05T07:30:38;17.33;;;8.73;;
2860;SDS011;1438;50.922;6.704;2023-04-05T07:33:04;11.13;;;7.35;;
2860;SDS011;1438;50.922;6.704;2023-04-05T07:35:30;15.43;;;7.68;;
2860;SDS011;1438;50.922;6.704;2023-04-05T07:37:56;11.43;;;7.72;;
2860;SDS011;1438;50.922;6.704;2023-04-05T07:40:22;13.98;;;8.63;;
2860;SDS011;1438;50.922;6.704;2023-04-05T07:42:48;17.17;;;9.48;;
2860;SDS011;1438;50.922;6.704;2023-04-05T07:45:14;13.95;;;8.32;;
2860;SDS011;1438;50.922;6.704;2023-04-05T07:47:41;10.90;;;7.63;;
2860;SDS011;1438;50.922;6.704;2023-04-05T07:50:07;14.65;;;8.48;;
2860;SDS011;1438;50.922;6.704;2023-04-05T07:52:35;17.45;;;9.43;;
2860;SDS011;1438;50.922;6.704;2023-04-05T07:55:01;16.10;;;9.35;;
2860;SDS011;1438;50.922;6.704;2023-04-05T07:57:27;11.60;;;7.88;;
2860;SDS011;1438;50.922;6.704;2023-04-05T07:59:53;13.43;;;8.85;;
2860;SDS011;1438;50.922;6.704;2023-04-05T08:02:20;13.13;;;8.68;;
2860;SDS011;1438;50.922;6.704;2023-04-05T08:04:46;13.05;;;7.90;;
2860;SDS011;1438;50.922;6.704;2023-04-05T08:07:12;13.02;;;9.20;;
2860;SDS011;1438;50.922;6.704;2023-04-05T08:09:38;16.05;;;7.80;;
2860;SDS011;1438;50.922;6.704;2023-04-05T08:12:04;11.98;;;7.55;;
2860;SDS011;1438;50.922;6.704;2023-04-05T08:14:31;14.10;;;7.50;;
2860;SDS011;1438;50.922;6.704;2023-04-05T08:16:57;9.73;;;7.10;;
2860;SDS011;1438;50.922;6.704;2023-04-05T08:19:23;8.77;;;6.65;;
2860;SDS011;1438;50.922;6.704;2023-04-05T08:21:49;10.23;;;7.18;;
2860;SDS011;1438;50.922;6.704;2023-04-05T08:24:15;16.00;;;7.00;;
2860;SDS011;1438;50.922;6.704;2023-04-05T08:26:41;10.35;;;6.93;;
2860;SDS011;1438;50.922;6.704;2023-04-05T08:29:08;13.45;;;7.22;;
2860;SDS011;1438;50.922;6.704;2023-04-05T08:31:34;10.27;;;7.15;;
2860;SDS011;1438;50.922;6.704;2023-04-05T08:34:00;12.32;;;6.93;;
2860;SDS011;1438;50.922;6.704;2023-04-05T08:36:26;11.43;;;6.88;;
2860;SDS011;1438;50.922;6.704;2023-04-05T08:38:52;14.82;;;7.55;;
2860;SDS011;1438;50.922;6.704;2023-04-05T08:41:20;12.40;;;6.90;;
2860;SDS011;1438;50.922;6.704;2023-04-05T08:43:56;10.52;;;7.45;;
2860;SDS011;1438;50.922;6.704;2023-04-05T08:46:23;13.13;;;7.18;;
2860;SDS011;1438;50.922;6.704;2023-04-05T08:48:49;16.13;;;7.18;;
2860;SDS011;1438;50.922;6.704;2023-04-05T08:51:22;9.35;;;6.07;;
2860;SDS011;1438;50.922;6.704;2023-04-05T08:53:48;9.50;;;5.90;;
2860;SDS011;1438;50.922;6.704;2023-04-05T08:56:15;11.77;;;6.87;;
2860;SDS011;1438;50.922;6.704;2023-04-05T08:58:46;8.27;;;5.90;;
2860;SDS011;1438;50.922;6.704;2023-04-05T09:01:13;10.67;;;6.60;;
2860;SDS011;1438;50.922;6.704;2023-04-05T09:03:40;9.33;;;6.70;;
2860;SDS011;1438;50.922;6.704;2023-04-05T09:06:07;9.47;;;7.67;;
2860;SDS011;1438;50.922;6.704;2023-04-05T09:08:34;9.20;;;5.90;;
2860;SDS011;1438;50.922;6.704;2023-04-05T09:11:00;10.20;;;7.00;;
2860;SDS011;1438;50.922;6.704;2023-04-05T09:13:26;10.13;;;6.47;;
2860;SDS011;1438;50.922;6.704;2023-04-05T09:15:52;14.17;;;8.57;;
2860;SDS011;1438;50.922;6.704;2023-04-05T09:18:18;11.57;;;7.20;;
2860;SDS011;1438;50.922;6.704;2023-04-05T09:20:44;11.87;;;6.80;;
2860;SDS011;1438;50.922;6.704;2023-04-05T09:23:10;13.00;;;7.33;;
2860;SDS011;1438;50.922;6.704;2023-04-05T09:25:37;10.77;;;7.23;;
2860;SDS011;1438;50.922;6.704;2023-04-05T09:28:09;9.13;;;6.17;;
2860;SDS011;1438;50.922;6.704;2023-04-05T09:30:36;11.50;;;6.63;;
2860;SDS011;1438;50.922;6.704;2023-04-05T09:33:03;10.30;;;6.97;;
2860;SDS011;1438;50.922;6.704;2023-04-05T09:35:32;10.43;;;6.80;;
2860;SDS011;1438;50.922;6.704;2023-04-05T09:37:58;7.57;;;6.10;;
2860;SDS011;1438;50.922;6.704;2023-04-05T09:40:41;9.37;;;6.67;;
2860;SDS011;1438;50.922;6.704;2023-04-05T09:43:08;6.83;;;6.13;;
2860;SDS011;1438;50.922;6.704;2023-04-05T09:45:38;10.03;;;6.60;;
2860;SDS011;1438;50.922;6.704;2023-04-05T09:48:09;12.80;;;7.10;;
2860;SDS011;1438;50.922;6.704;2023-04-05T09:50:37;13.00;;;7.30;;
2860;SDS011;1438;50.922;6.704;2023-04-05T09:53:13;11.03;;;7.13;;
2860;SDS011;1438;50.922;6.704;2023-04-05T09:55:43;8.53;;;5.40;;
2860;SDS011;1438;50.922;6.704;2023-04-05T09:58:17;10.10;;;6.33;;
2860;SDS011;1438;50.922;6.704;2023-04-05T10:00:47;7.17;;;5.53;;
2860;SDS011;1438;50.922;6.704;2023-04-05T10:03:17;10.50;;;6.07;;
2860;SDS011;1438;50.922;6.704;2023-04-05T10:05:43;8.37;;;6.00;;
2860;SDS011;1438;50.922;6.704;2023-04-05T10:08:10;6.20;;;5.60;;
2860;SDS011;1438;50.922;6.704;2023-04-05T10:10:36;7.93;;;6.20;;
2860;SDS011;1438;50.922;6.704;2023-04-05T10:13:10;9.57;;;6.80;;
2860;SDS011;1438;50.922;6.704;2023-04-05T10:15:37;8.43;;;5.60;;
2860;SDS011;1438;50.922;6.704;2023-04-05T10:18:08;7.63;;;6.20;;
2860;SDS011;1438;50.922;6.704;2023-04-05T10:20:38;7.97;;;4.80;;
2860;SDS011;1438;50.922;6.704;2023-04-05T10:25:39;6.87;;;5.30;;
2860;SDS011;1438;50.922;6.704;2023-04-05T10:30:56;7.07;;;5.33;;
2860;SDS011;1438;50.922;6.704;2023-04-05T10:38:26;7.00;;;6.07;;
2860;SDS011;1438;50.922;6.704;2023-04-05T10:41:04;6.13;;;5.40;;
2860;SDS011;1438;50.922;6.704;2023-04-05T10:43:34;11.03;;;5.90;;
2860;SDS011;1438;50.922;6.704;2023-04-05T10:46:02;7.30;;;5.10;;
2860;SDS011;1438;50.922;6.704;2023-04-05T10:51:14;11.63;;;6.90;;
2860;SDS011;1438;50.922;6.704;2023-04-05T10:53:40;7.20;;;5.50;;
2860;SDS011;1438;50.922;6.704;2023-04-05T10:56:06;7.33;;;6.00;;
2860;SDS011;1438;50.922;6.704;2023-04-05T10:58:33;8.70;;;5.93;;
2860;SDS011;1438;50.922;6.704;2023-04-05T11:01:00;9.27;;;5.93;;
2860;SDS011;1438;50.922;6.704;2023-04-05T11:09:05;7.40;;;6.17;;
2860;SDS011;1438;50.922;6.704;2023-04-05T11:11:38;7.30;;;5.70;;
2860;SDS011;1438;50.922;6.704;2023-04-05T11:14:15;8.33;;;5.80;;
2860;SDS011;1438;50.922;6.704;2023-04-05T11:16:44;8.50;;;7.03;;
2860;SDS011;1438;50.922;6.704;2023-04-05T11:19:18;9.67;;;6.97;;
2860;SDS011;1438;50.922;6.704;2023-04-05T11:21:44;7.53;;;6.73;;
2860;SDS011;1438;50.922;6.704;2023-04-05T11:24:11;7.83;;;6.17;;
2860;SDS011;1438;50.922;6.704;2023-04-05T11:29:06;7.03;;;5.63;;
2860;SDS011;1438;50.922;6.704;2023-04-05T11:31:32;7.67;;;5.87;;
2860;SDS011;1438;50.922;6.704;2023-04-05T11:33:59;12.80;;;6.23;;
2860;SDS011;1438;50.922;6.704;2023-04-05T11:41:55;8.40;;;6.00;;
2860;SDS011;1438;50.922;6.704;2023-04-05T11:44:21;10.83;;;6.10;;
2860;SDS011;1438;50.922;6.704;2023-04-05T11:46:48;13.63;;;6.17;;
2860;SDS011;1438;50.922;6.704;2023-04-05T11:49:14;7.80;;;5.50;;
2860;SDS011;1438;50.922;6.704;2023-04-05T11:51:41;7.43;;;6.60;;
2860;SDS011;1438;50.922;6.704;2023-04-05T11:54:09;6.97;;;5.60;;
2860;SDS011;1438;50.922;6.704;2023-04-05T11:56:36;6.83;;;6.10;;
2860;SDS011;1438;50.922;6.704;2023-04-05T11:59:02;7.60;;;6.80;;
2860;SDS011;1438;50.922;6.704;2023-04-05T12:01:28;8.20;;;7.00;;
2860;SDS011;1438;50.922;6.704;2023-04-05T12:03:54;8.53;;;6.50;;
2860;SDS011;1438;50.922;6.704;2023-04-05T12:06:21;7.50;;;6.53;;
2860;SDS011;1438;50.922;6.704;2023-04-05T12:08:47;7.37;;;5.90;;
2860;SDS011;1438;50.922;6.704;2023-04-05T12:11:26;10.37;;;7.80;;
2860;SDS011;1438;50.922;6.704;2023-04-05T12:13:54;7.50;;;6.30;;
2860;SDS011;1438;50.922;6.704;2023-04-05T12:16:22;6.73;;;6.00;;
2860;SDS011;1438;50.922;6.704;2023-04-05T12:19:06;7.40;;;5.97;;
2860;SDS011;1438;50.922;6.704;2023-04-05T12:21:32;9.10;;;7.27;;
2860;SDS011;1438;50.922;6.704;2023-04-05T12:23:58;9.47;;;6.80;;
2860;SDS011;1438;50.922;6.704;2023-04-05T12:26:24;7.07;;;6.37;;
2860;SDS011;1438;50.922;6.704;2023-04-05T12:28:54;9.70;;;6.70;;
2860;SDS011;1438;50.922;6.704;2023-04-05T12:31:36;7.00;;;6.30;;
2860;SDS011;1438;50.922;6.704;2023-04-05T12:34:03;9.60;;;6.90;;
2860;SDS011;1438;50.922;6.704;2023-04-05T12:36:29;7.37;;;6.13;;
2860;SDS011;1438;50.922;6.704;2023-04-05T12:38:56;8.33;;;6.20;;
2860;SDS011;1438;50.922;6.704;2023-04-05T12:41:25;11.70;;;7.20;;
2860;SDS011;1438;50.922;6.704;2023-04-05T12:43:52;9.90;;;6.90;;
2860;SDS011;1438;50.922;6.704;2023-04-05T12:46:36;8.47;;;6.50;;
2860;SDS011;1438;50.922;6.704;2023-04-05T12:49:03;8.07;;;7.27;;
2860;SDS011;1438;50.922;6.704;2023-04-05T12:51:30;7.87;;;6.87;;
2860;SDS011;1438;50.922;6.704;2023-04-05T12:53:56;10.13;;;8.33;;
2860;SDS011;1438;50.922;6.704;2023-04-05T12:56:22;8.70;;;7.60;;
2860;SDS011;1438;50.922;6.704;2023-04-05T12:58:48;9.83;;;8.73;;
2860;SDS011;1438;50.922;6.704;2023-04-05T13:01:15;10.13;;;7.50;;
2860;SDS011;1438;50.922;6.704;2023-04-05T13:03:44;10.70;;;7.73;;
2860;SDS011;1438;50.922;6.704;2023-04-05T13:06:10;8.53;;;7.60;;
2860;SDS011;1438;50.922;6.704;2023-04-05T13:08:36;10.43;;;7.50;;
2860;SDS011;1438;50.922;6.704;2023-04-05T13:11:02;9.13;;;8.20;;
2860;SDS011;1438;50.922;6.704;2023-04-05T13:13:28;7.90;;;6.93;;
2860;SDS011;1438;50.922;6.704;2023-04-05T13:15:54;10.90;;;7.60;;
2860;SDS011;1438;50.922;6.704;2023-04-05T13:18:20;12.70;;;8.83;;
2860;SDS011;1438;50.922;6.704;2023-04-05T13:20:46;11.73;;;9.03;;
2860;SDS011;1438;50.922;6.704;2023-04-05T13:23:12;12.00;;;9.17;;
2860;SDS011;1438;50.922;6.704;2023-04-05T13:25:39;11.87;;;9.00;;
2860;SDS011;1438;50.922;6.704;2023-04-05T13:28:05;10.50;;;8.10;;
2860;SDS011;1438;50.922;6.704;2023-04-05T13:30:31;13.43;;;8.20;;
2860;SDS011;1438;50.922;6.704;2023-04-05T13:32:57;11.20;;;9.60;;
2860;SDS011;1438;50.922;6.704;2023-04-05T13:35:23;10.23;;;9.23;;
2860;SDS011;1438;50.922;6.704;2023-04-05T13:37:49;12.33;;;9.40;;
2860;SDS011;1438;50.922;6.704;2023-04-05T13:40:16;10.43;;;9.37;;
2860;SDS011;1438;50.922;6.704;2023-04-05T13:42:42;12.53;;;10.40;;
2860;SDS011;1438;50.922;6.704;2023-04-05T13:45:08;11.93;;;10.00;;
2860;SDS011;1438;50.922;6.704;2023-04-05T13:47:35;10.17;;;8.77;;
2860;SDS011;1438;50.922;6.704;2023-04-05T13:50:01;10.03;;;8.93;;
2860;SDS011;1438;50.922;6.704;2023-04-05T13:52:27;9.43;;;8.53;;
2860;SDS011;1438;50.922;6.704;2023-04-05T13:54:53;11.47;;;8.60;;
2860;SDS011;1438;50.922;6.704;2023-04-05T13:57:20;10.13;;;8.53;;
2860;SDS011;1438;50.922;6.704;2023-04-05T13:59:46;13.23;;;9.17;;
2860;SDS011;1438;50.922;6.704;2023-04-05T14:02:12;10.80;;;9.70;;
2860;SDS011;1438;50.922;6.704;2023-04-05T14:04:38;11.17;;;9.93;;
2860;SDS011;1438;50.922;6.704;2023-04-05T14:07:05;11.30;;;10.20;;
2860;SDS011;1438;50.922;6.704;2023-04-05T14:09:31;10.83;;;9.70;;
2860;SDS011;1438;50.922;6.704;2023-04-05T14:11:58;13.60;;;9.17;;
2860;SDS011;1438;50.922;6.704;2023-04-05T14:14:26;13.20;;;10.17;;
2860;SDS011;1438;50.922;6.704;2023-04-05T14:16:52;10.57;;;8.70;;
2860;SDS011;1438;50.922;6.704;2023-04-05T14:19:18;12.37;;;9.27;;
2860;SDS011;1438;50.922;6.704;2023-04-05T14:21:44;10.20;;;9.20;;
2860;SDS011;1438;50.922;6.704;2023-04-05T14:24:11;12.80;;;9.37;;
2860;SDS011;1438;50.922;6.704;2023-04-05T14:26:37;15.40;;;11.27;;
2860;SDS011;1438;50.922;6.704;2023-04-05T14:29:03;10.40;;;9.30;;
2860;SDS011;1438;50.922;6.704;2023-04-05T14:31:29;13.40;;;10.07;;
2860;SDS011;1438;50.922;6.704;2023-04-05T14:33:55;11.13;;;10.07;;
2860;SDS011;1438;50.922;6.704;2023-04-05T14:36:21;13.37;;;9.10;;
2860;SDS011;1438;50.922;6.704;2023-04-05T14:38:48;23.23;;;10.20;;
2860;SDS011;1438;50.922;6.704;2023-04-05T14:41:14;10.30;;;9.00;;
2860;SDS011;1438;50.922;6.704;2023-04-05T14:43:40;11.53;;;9.30;;
2860;SDS011;1438;50.922;6.704;2023-04-05T14:46:07;12.43;;;10.33;;
2860;SDS011;1438;50.922;6.704;2023-04-05T14:48:33;11.17;;;10.00;;
2860;SDS011;1438;50.922;6.704;2023-04-05T14:50:59;11.77;;;9.43;;
2860;SDS011;1438;50.922;6.704;2023-04-05T14:53:25;13.00;;;9.00;;
2860;SDS011;1438;50.922;6.704;2023-04-05T14:55:52;12.67;;;9.97;;
2860;SDS011;1438;50.922;6.704;2023-04-05T14:58:18;15.27;;;8.87;;
2860;SDS011;1438;50.922;6.704;2023-04-05T15:00:44;10.87;;;8.80;;
2860;SDS011;1438;50.922;6.704;2023-04-05T15:03:10;11.13;;;9.30;;
2860;SDS011;1438;50.922;6.704;2023-04-05T15:05:36;14.10;;;9.57;;
2860;SDS011;1438;50.922;6.704;2023-04-05T15:08:02;14.63;;;9.80;;
2860;SDS011;1438;50.922;6.704;2023-04-05T15:10:29;14.93;;;9.50;;
2860;SDS011;1438;50.922;6.704;2023-04-05T15:12:55;11.77;;;8.70;;
2860;SDS011;1438;50.922;6.704;2023-04-05T15:15:21;9.63;;;8.57;;
2860;SDS011;1438;50.922;6.704;2023-04-05T15:17:47;10.60;;;8.47;;
2860;SDS011;1438;50.922;6.704;2023-04-05T15:20:13;13.10;;;10.10;;
2860;SDS011;1438;50.922;6.704;2023-04-05T15:22:39;11.50;;;9.03;;
2860;SDS011;1438;50.922;6.704;2023-04-05T15:25:06;13.20;;;9.83;;
2860;SDS011;1438;50.922;6.704;2023-04-05T15:27:32;10.53;;;8.93;;
2860;SDS011;1438;50.922;6.704;2023-04-05T15:29:59;11.33;;;8.90;;
2860;SDS011;1438;50.922;6.704;2023-04-05T15:32:25;11.73;;;9.17;;
2860;SDS011;1438;50.922;6.704;2023-04-05T15:34:51;9.57;;;7.87;;
2860;SDS011;1438;50.922;6.704;2023-04-05T15:37:17;10.73;;;8.20;;
2860;SDS011;1438;50.922;6.704;2023-04-05T15:39:43;11.33;;;9.10;;
2860;SDS011;1438;50.922;6.704;2023-04-05T15:42:10;12.03;;;9.60;;
2860;SDS011;1438;50.922;6.704;2023-04-05T15:44:36;11.63;;;8.33;;
2860;SDS011;1438;50.922;6.704;2023-04-05T15:47:02;11.80;;;9.13;;
2860;SDS011;1438;50.922;6.704;2023-04-05T15:49:28;12.67;;;8.30;;